createdAt,value
2022-08-09T00:00:00.517Z,101372.13
2022-08-09T00:02:32.970Z,101368.16
2022-08-09T00:06:15.537Z,101371.25
2022-08-09T00:07:48.422Z,101363.78
2022-08-09T00:10:18.165Z,101364.41
2022-08-09T00:12:51.535Z,101368.31
2022-08-09T00:15:26.334Z,101371.03
2022-08-09T00:18:05.425Z,101361.25
2022-08-09T00:20:42.510Z,101362.69
2022-08-09T00:23:58.045Z,101362.34
2022-08-09T00:26:05.056Z,101353.97
2022-08-09T00:28:34.767Z,101358.00
2022-08-09T00:31:30.709Z,101348.91
2022-08-09T00:33:53.130Z,101348.56
2022-08-09T00:36:20.998Z,101341.63
2022-08-09T00:38:50.876Z,101347.16
2022-08-09T00:44:13.998Z,101344.34
2022-08-09T00:44:24.525Z,101350.81
2022-08-09T00:47:04.888Z,101343.75
2022-08-09T00:49:32.956Z,101342.59
2022-08-09T00:52:05.365Z,101349.09
2022-08-09T00:54:36.382Z,101351.53
2022-08-09T00:57:10.352Z,101342.13
2022-08-09T00:59:41.067Z,101348.97
2022-08-09T01:02:20.355Z,101350.47
2022-08-09T01:04:54.386Z,101350.13
2022-08-09T01:07:38.148Z,101351.19
2022-08-09T01:10:25.958Z,101350.13
2022-08-09T01:13:00.810Z,101354.69
2022-08-09T01:15:32.199Z,101352.91
2022-08-09T01:18:14.305Z,101353.16
2022-08-09T01:20:56.852Z,101354.44
2022-08-09T01:24:02.559Z,101350.44
2022-08-09T01:26:53.076Z,101348.78
2022-08-09T01:29:40.976Z,101347.25
2022-08-09T01:32:30.959Z,101345.69
2022-08-09T01:35:07.281Z,101350.03
2022-08-09T01:38:09.610Z,101349.19
2022-08-09T01:40:40.425Z,101347.56
2022-08-09T01:43:10.688Z,101349.91
2022-08-09T01:45:46.419Z,101344.44
2022-08-09T01:48:16.760Z,101342.44
2022-08-09T01:50:48.136Z,101343.97
2022-08-09T01:53:19.401Z,101345.50
2022-08-09T01:55:48.207Z,101348.19
2022-08-09T01:58:17.397Z,101341.03
2022-08-09T02:00:50.528Z,101346.41
2022-08-09T02:03:19.431Z,101345.22
2022-08-09T02:05:53.523Z,101347.78
2022-08-09T02:08:38.484Z,101348.84
2022-08-09T02:11:21.128Z,101356.72
2022-08-09T02:14:06.325Z,101355.59
2022-08-09T02:16:59.652Z,101355.34
2022-08-09T02:19:24.337Z,101350.25
2022-08-09T02:22:06.660Z,101352.97
2022-08-09T02:24:38.277Z,101359.03
2022-08-09T02:27:08.893Z,101362.19
2022-08-09T02:29:40.185Z,101360.19
2022-08-09T02:32:09.764Z,101369.13
2022-08-09T02:34:41.572Z,101359.50
2022-08-09T02:37:22.432Z,101362.06
2022-08-09T02:40:01.570Z,101362.53
2022-08-09T02:42:33.229Z,101367.31
2022-08-09T02:45:06.675Z,101367.56
2022-08-09T02:47:57.594Z,101359.44
2022-08-09T02:50:25.569Z,101366.72
2022-08-09T02:52:57.892Z,101360.34
2022-08-09T02:55:46.440Z,101366.94
2022-08-09T02:58:35.680Z,101355.16
2022-08-09T03:01:06.244Z,101354.41
2022-08-09T03:04:13.138Z,101353.13
2022-08-09T03:06:25.100Z,101355.31
2022-08-09T03:08:55.544Z,101354.13
2022-08-09T03:11:29.637Z,101356.06
2022-08-09T03:14:12.332Z,101356.34
2022-08-09T03:16:45.286Z,101363.28
2022-08-09T03:19:52.208Z,101365.22
2022-08-09T03:22:03.770Z,101362.31
2022-08-09T03:24:42.589Z,101359.00
2022-08-09T03:27:21.453Z,101366.13
2022-08-09T03:30:00.687Z,101366.88
2022-08-09T03:32:31.628Z,101366.41
2022-08-09T03:35:00.193Z,101369.13
2022-08-09T03:37:55.213Z,101364.63
2022-08-09T03:40:18.073Z,101372.34
2022-08-09T03:42:45.842Z,101374.66
2022-08-09T03:45:14.229Z,101371.97
2022-08-09T03:47:46.778Z,101377.53
2022-08-09T03:50:18.830Z,101386.09
2022-08-09T03:52:56.004Z,101388.16
2022-08-09T03:55:25.393Z,101393.44
2022-08-09T03:58:09.767Z,101393.78
2022-08-09T04:00:42.924Z,101382.41
2022-08-09T04:03:19.725Z,101390.94
2022-08-09T04:05:59.742Z,101392.19
2022-08-09T04:08:32.119Z,101396.38
2022-08-09T04:11:01.625Z,101398.03
2022-08-09T04:14:37.065Z,101394.50
2022-08-09T04:16:20.720Z,101400.19
2022-08-09T04:18:51.297Z,101396.06
2022-08-09T04:21:19.114Z,101399.38
2022-08-09T04:23:53.833Z,101403.53
2022-08-09T04:26:23.399Z,101400.63
2022-08-09T04:28:52.414Z,101406.03
2022-08-09T04:31:22.532Z,101406.69
2022-08-09T04:33:56.992Z,101408.94
2022-08-09T04:36:28.222Z,101415.22
2022-08-09T04:38:57.342Z,101403.16
2022-08-09T04:41:32.987Z,101419.16
2022-08-09T04:44:06.380Z,101416.50
2022-08-09T04:46:57.358Z,101419.81
2022-08-09T04:49:40.420Z,101424.38
2022-08-09T04:52:18.407Z,101427.69
2022-08-09T04:54:51.346Z,101428.72
2022-08-09T04:57:23.859Z,101427.69
2022-08-09T04:59:52.692Z,101439.69
2022-08-09T05:02:20.350Z,101436.38
2022-08-09T05:04:55.239Z,101439.69
2022-08-09T05:07:23.544Z,101445.75
2022-08-09T05:09:51.793Z,101440.19
2022-08-09T05:12:22.643Z,101447.19
2022-08-09T05:14:50.286Z,101456.97
2022-08-09T05:18:38.046Z,101450.53
2022-08-09T05:20:09.790Z,101450.28
2022-08-09T05:23:54.577Z,101448.41
2022-08-09T05:25:32.260Z,101445.66
2022-08-09T05:28:00.285Z,101454.16
2022-08-09T05:30:38.112Z,101455.66
2022-08-09T05:33:17.471Z,101455.38
2022-08-09T05:35:48.805Z,101463.22
2022-08-09T05:38:22.025Z,101466.25
2022-08-09T05:40:52.479Z,101465.63
2022-08-09T05:43:20.623Z,101461.16
2022-08-09T05:45:55.594Z,101469.28
2022-08-09T05:48:27.886Z,101475.44
2022-08-09T05:51:43.124Z,101480.84
2022-08-09T05:53:56.917Z,101477.09
2022-08-09T05:56:26.056Z,101468.69
2022-08-09T05:58:58.253Z,101471.91
2022-08-09T06:01:26.813Z,101477.72
2022-08-09T06:04:02.500Z,101473.50
2022-08-09T06:06:35.298Z,101481.78
2022-08-09T06:09:03.159Z,101485.84
2022-08-09T06:11:41.151Z,101485.41
2022-08-09T06:14:25.081Z,101495.25
2022-08-09T06:16:52.730Z,101495.19
2022-08-09T06:19:20.269Z,101495.19
2022-08-09T06:21:51.406Z,101495.09
2022-08-09T06:24:25.676Z,101492.56
2022-08-09T06:26:53.160Z,101506.88
2022-08-09T06:29:21.425Z,101506.44
2022-08-09T06:32:36.171Z,101503.88
2022-08-09T06:34:36.935Z,101495.00
2022-08-09T06:37:08.901Z,101502.16
2022-08-09T06:39:48.155Z,101508.19
2022-08-09T06:42:28.536Z,101512.53
2022-08-09T06:44:58.724Z,101505.97
2022-08-09T06:47:30.322Z,101513.88
2022-08-09T06:50:14.026Z,101519.28
2022-08-09T06:52:47.267Z,101513.44
2022-08-09T06:55:17.635Z,101514.44
2022-08-09T06:58:02.755Z,101516.94
2022-08-09T07:00:51.002Z,101513.06
2022-08-09T07:03:19.846Z,101512.38
2022-08-09T07:06:03.149Z,101522.88
2022-08-09T07:08:34.074Z,101515.34
2022-08-09T07:11:03.583Z,101520.63
2022-08-09T07:13:31.476Z,101520.53
2022-08-09T07:16:40.370Z,101524.19
2022-08-09T07:19:00.622Z,101521.84
2022-08-09T07:21:31.020Z,101525.13
2022-08-09T07:24:03.086Z,101526.56
2022-08-09T07:26:32.514Z,101526.81
2022-08-09T07:29:08.410Z,101530.84
2022-08-09T07:31:45.559Z,101528.13
2022-08-09T07:34:20.819Z,101526.13
2022-08-09T07:36:49.623Z,101534.63
2022-08-09T07:39:20.200Z,101538.16
2022-08-09T07:42:06.989Z,101534.38
2022-08-09T07:44:51.996Z,101531.06
2022-08-09T07:47:23.285Z,101527.72
2022-08-09T07:50:04.624Z,101538.47
2022-08-09T07:52:33.665Z,101532.78
2022-08-09T07:55:08.944Z,101533.38
2022-08-09T07:57:37.574Z,101531.72
2022-08-09T08:00:20.840Z,101529.84
2022-08-09T08:03:05.133Z,101532.44
2022-08-09T08:05:54.077Z,101528.03
2022-08-09T08:09:02.634Z,101531.06
2022-08-09T08:12:11.233Z,101535.84
2022-08-09T08:14:01.454Z,101532.38
2022-08-09T08:16:31.697Z,101533.59
2022-08-09T08:19:01.630Z,101528.88
2022-08-09T08:21:31.111Z,101523.69
2022-08-09T08:24:01.290Z,101531.19
2022-08-09T08:26:41.875Z,101529.56
2022-08-09T08:29:27.879Z,101523.16
2022-08-09T08:32:03.121Z,101518.22
2022-08-09T08:34:33.683Z,101530.09
2022-08-09T08:37:02.367Z,101517.88
2022-08-09T08:39:39.172Z,101525.84
2022-08-09T08:42:13.979Z,101521.66
2022-08-09T08:44:44.211Z,101527.66
2022-08-09T08:47:15.563Z,101529.28
2022-08-09T08:49:47.738Z,101522.63
2022-08-09T08:52:48.620Z,101522.59
2022-08-09T08:55:06.128Z,101521.72
2022-08-09T08:57:36.100Z,101527.50
2022-08-09T09:00:16.783Z,101516.22
2022-08-09T09:02:52.968Z,101526.63
2022-08-09T09:05:57.720Z,101519.50
2022-08-09T09:08:29.857Z,101520.59
2022-08-09T09:10:58.906Z,101522.69
2022-08-09T09:13:41.736Z,101512.03
2022-08-09T09:16:16.271Z,101518.97
2022-08-09T09:18:48.771Z,101521.13
2022-08-09T09:21:25.945Z,101504.56
2022-08-09T09:23:58.322Z,101508.31
2022-08-09T09:26:34.985Z,101512.25
2022-08-09T09:29:11.355Z,101509.50
2022-08-09T09:32:04.703Z,101510.50
2022-08-09T09:34:39.260Z,101516.78
2022-08-09T09:37:31.796Z,101504.84
2022-08-09T09:39:59.817Z,101505.44
2022-08-09T09:42:31.065Z,101509.78
2022-08-09T09:45:01.201Z,101504.38
2022-08-09T09:47:32.496Z,101506.91
2022-08-09T09:50:15.206Z,101501.44
2022-08-09T09:52:53.941Z,101504.03
2022-08-09T09:55:32.698Z,101501.06
2022-08-09T09:58:16.371Z,101493.13
2022-08-09T10:00:54.321Z,101491.31
2022-08-09T10:03:56.332Z,101493.25
2022-08-09T10:06:28.510Z,101489.44
2022-08-09T10:09:02.840Z,101488.66
2022-08-09T10:11:59.442Z,101485.09
2022-08-09T10:14:30.394Z,101487.91
2022-08-09T10:17:17.200Z,101487.13
2022-08-09T10:19:47.587Z,101491.53
2022-08-09T10:22:32.652Z,101484.94
2022-08-09T10:25:03.588Z,101472.41
2022-08-09T10:27:56.331Z,101480.38
2022-08-09T10:34:07.845Z,101473.53
2022-08-09T10:36:04.482Z,101477.09
2022-08-09T10:38:33.712Z,101474.66
2022-08-09T10:41:02.080Z,101471.09
2022-08-09T10:43:35.997Z,101472.75
2022-08-09T10:46:43.564Z,101468.38
2022-08-09T10:49:50.948Z,101465.91
2022-08-09T10:52:37.239Z,101461.22
2022-08-09T10:55:24.866Z,101463.41
2022-08-09T10:57:55.814Z,101459.91
2022-08-09T11:00:50.859Z,101457.13
2022-08-09T11:03:51.314Z,101460.69
2022-08-09T11:06:22.779Z,101463.66
2022-08-09T11:08:53.417Z,101456.53
2022-08-09T11:11:22.869Z,101455.69
2022-08-09T11:14:31.817Z,101458.72
2022-08-09T11:16:59.661Z,101451.06
2022-08-09T11:20:09.773Z,101452.41
2022-08-09T11:23:02.894Z,101456.50
2022-08-09T11:25:47.449Z,101453.47
2022-08-09T11:28:35.206Z,101456.72
2022-08-09T11:31:43.146Z,101449.22
2022-08-09T11:34:17.616Z,101445.06
2022-08-09T11:36:46.135Z,101447.03
2022-08-09T11:39:17.649Z,101452.53
2022-08-09T11:41:45.821Z,101456.63
2022-08-09T11:44:16.420Z,101445.91
2022-08-09T11:46:59.515Z,101451.66
2022-08-09T11:50:53.538Z,101447.78
2022-08-09T11:54:01.452Z,101445.06
2022-08-09T11:56:34.388Z,101441.72
2022-08-09T11:59:12.018Z,101443.31
2022-08-09T12:02:17.044Z,101434.84
2022-08-09T12:04:37.185Z,101440.09
2022-08-09T12:07:08.404Z,101433.03
2022-08-09T12:09:36.582Z,101419.06
2022-08-09T12:12:12.124Z,101426.41
2022-08-09T12:15:08.153Z,101421.38
2022-08-09T12:17:44.609Z,101408.94
2022-08-09T12:20:21.672Z,101417.38
2022-08-09T12:22:50.712Z,101417.06
2022-08-09T12:25:34.725Z,101408.28
2022-08-09T12:29:10.641Z,101411.59
2022-08-09T12:31:00.294Z,101403.06
2022-08-09T12:33:50.807Z,101398.91
2022-08-09T12:36:31.317Z,101398.09
2022-08-09T12:39:01.359Z,101388.22
2022-08-09T12:41:33.716Z,101384.97
2022-08-09T12:44:10.005Z,101388.56
2022-08-09T12:46:41.537Z,101379.47
2022-08-09T12:49:11.101Z,101376.31
2022-08-09T12:52:00.150Z,101383.41
2022-08-09T12:54:27.047Z,101383.66
2022-08-09T12:56:54.899Z,101383.69
2022-08-09T12:59:57.540Z,101376.25
2022-08-09T13:02:12.574Z,101373.22
2022-08-09T13:04:42.768Z,101385.25
2022-08-09T13:07:11.369Z,101372.09
2022-08-09T13:09:52.827Z,101375.78
2022-08-09T13:12:27.914Z,101377.59
2022-08-09T13:15:07.396Z,101371.25
2022-08-09T13:18:03.846Z,101376.19
2022-08-09T13:20:37.510Z,101377.59
2022-08-09T13:24:16.694Z,101371.28
2022-08-09T13:26:10.262Z,101367.44
2022-08-09T13:28:39.665Z,101370.78
2022-08-09T13:32:13.266Z,101361.34
2022-08-09T13:33:58.023Z,101360.16
2022-08-09T13:36:42.597Z,101355.22
2022-08-09T13:41:50.542Z,101351.97
2022-08-09T13:42:03.622Z,101359.13
2022-08-09T13:44:32.139Z,101359.41
2022-08-09T13:47:29.188Z,101354.41
2022-08-09T13:49:58.151Z,101354.50
2022-08-09T13:52:30.071Z,101344.19
2022-08-09T13:55:00.953Z,101338.84
2022-08-09T13:57:39.364Z,101337.16
2022-08-09T14:00:12.114Z,101338.78
2022-08-09T14:03:03.124Z,101332.78
2022-08-09T14:05:58.910Z,101330.09
2022-08-09T14:08:17.862Z,101332.44
2022-08-09T14:10:52.034Z,101329.22
2022-08-09T14:13:28.311Z,101332.50
2022-08-09T14:16:10.846Z,101332.50
2022-08-09T14:18:45.382Z,101338.00
2022-08-09T14:21:20.565Z,101337.25
2022-08-09T14:23:55.284Z,101333.91
2022-08-09T14:26:32.143Z,101336.81
2022-08-09T14:29:02.953Z,101334.81
2022-08-09T14:31:36.341Z,101334.59
2022-08-09T14:34:27.454Z,101328.97
2022-08-09T14:37:01.820Z,101324.56
2022-08-09T14:39:40.349Z,101328.28
2022-08-09T14:42:40.721Z,101331.53
2022-08-09T14:46:38.861Z,101332.22
2022-08-09T14:47:57.293Z,101315.94
2022-08-09T14:50:30.402Z,101328.38
2022-08-09T14:52:58.641Z,101314.47
2022-08-09T14:55:31.987Z,101320.09
2022-08-09T14:58:01.240Z,101315.03
2022-08-09T15:00:31.118Z,101317.09
2022-08-09T15:03:00.134Z,101319.75
2022-08-09T15:05:29.551Z,101308.94
2022-08-09T15:07:58.365Z,101314.59
2022-08-09T15:10:26.378Z,101317.88
2022-08-09T15:12:53.935Z,101311.50
2022-08-09T15:15:21.849Z,101312.81
2022-08-09T15:17:52.296Z,101313.69
2022-08-09T15:21:54.981Z,101308.19
2022-08-09T15:24:02.246Z,101302.94
2022-08-09T15:25:58.431Z,101300.78
2022-08-09T15:28:27.876Z,101306.19
2022-08-09T15:31:08.654Z,101311.19
2022-08-09T15:34:17.599Z,101307.59
2022-08-09T15:36:30.507Z,101297.28
2022-08-09T15:39:00.383Z,101304.94
2022-08-09T15:41:31.217Z,101300.34
2022-08-09T15:43:59.987Z,101299.97
2022-08-09T15:46:31.750Z,101294.47
2022-08-09T15:49:22.928Z,101285.09
2022-08-09T15:52:03.422Z,101285.41
2022-08-09T15:54:44.560Z,101280.13
2022-08-09T15:57:33.782Z,101285.00
2022-08-09T16:00:06.204Z,101283.75
2022-08-09T16:02:34.076Z,101277.13
2022-08-09T16:05:02.389Z,101282.63
2022-08-09T16:07:38.871Z,101283.22
2022-08-09T16:10:11.254Z,101279.88
2022-08-09T16:12:50.568Z,101284.88
2022-08-09T16:16:04.590Z,101271.78
2022-08-09T16:18:10.178Z,101283.03
2022-08-09T16:20:38.419Z,101268.69
2022-08-09T16:23:13.377Z,101275.72
2022-08-09T16:25:43.973Z,101281.06
2022-08-09T16:28:17.556Z,101266.88
2022-08-09T16:30:59.379Z,101263.81
2022-08-09T16:33:27.415Z,101273.91
2022-08-09T16:36:00.905Z,101270.38
2022-08-09T16:38:32.202Z,101279.00
2022-08-09T16:41:04.263Z,101280.22
2022-08-09T16:43:32.140Z,101282.44
2022-08-09T16:45:59.636Z,101279.22
2022-08-09T16:48:38.162Z,101268.59
2022-08-09T16:51:16.925Z,101275.28
2022-08-09T16:54:16.483Z,101281.00
2022-08-09T16:56:36.328Z,101277.88
2022-08-09T16:59:06.664Z,101284.09
2022-08-09T17:01:38.811Z,101276.34
2022-08-09T17:04:06.825Z,101273.69
2022-08-09T17:07:09.238Z,101277.03
2022-08-09T17:09:44.930Z,101289.28
2022-08-09T17:12:11.290Z,101278.00
2022-08-09T17:14:38.801Z,101277.75
2022-08-09T17:17:26.079Z,101277.75
2022-08-09T17:20:33.111Z,101280.03
2022-08-09T17:22:50.067Z,101282.41
2022-08-09T17:25:20.178Z,101277.41
2022-08-09T17:27:54.511Z,101280.94
2022-08-09T17:30:26.114Z,101283.69
2022-08-09T17:32:54.965Z,101279.50
2022-08-09T17:35:28.265Z,101286.44
2022-08-09T17:38:12.141Z,101290.09
2022-08-09T17:40:47.238Z,101279.81
2022-08-09T17:43:34.201Z,101284.03
2022-08-09T17:46:06.743Z,101288.28
2022-08-09T17:48:38.327Z,101285.16
2022-08-09T17:51:17.433Z,101293.81
2022-08-09T17:53:51.433Z,101295.09
2022-08-09T17:56:20.502Z,101288.91
2022-08-09T17:58:49.550Z,101299.09
2022-08-09T18:01:22.373Z,101303.34
2022-08-09T18:03:51.129Z,101305.81
2022-08-09T18:06:30.790Z,101302.59
2022-08-09T18:09:01.559Z,101301.84
2022-08-09T18:11:32.157Z,101302.44
2022-08-09T18:14:22.043Z,101311.25
2022-08-09T18:16:54.729Z,101301.34
2022-08-09T18:20:57.267Z,101307.50
2022-08-09T18:22:17.222Z,101305.13
2022-08-09T18:24:45.960Z,101307.03
2022-08-09T18:27:18.809Z,101309.06
2022-08-09T18:30:41.255Z,101320.59
2022-08-09T18:32:57.580Z,101316.84
2022-08-09T18:35:47.990Z,101316.63
2022-08-09T18:38:13.375Z,101313.69
2022-08-09T18:40:41.397Z,101326.59
2022-08-09T18:43:09.581Z,101317.91
2022-08-09T18:46:49.687Z,101323.44
2022-08-09T18:48:30.471Z,101321.00
2022-08-09T18:51:03.668Z,101328.47
2022-08-09T18:53:55.972Z,101330.97
2022-08-09T18:56:27.080Z,101334.06
2022-08-09T18:58:56.119Z,101345.84
2022-08-09T19:01:25.637Z,101339.88
2022-08-09T19:04:01.161Z,101345.63
2022-08-09T19:06:38.577Z,101349.75
2022-08-09T19:09:07.540Z,101350.56
2022-08-09T19:11:38.240Z,101346.78
2022-08-09T19:14:06.662Z,101356.38
2022-08-09T19:16:37.871Z,101360.22
2022-08-09T19:19:25.685Z,101361.63
2022-08-09T19:22:04.901Z,101369.00
2022-08-09T19:24:39.669Z,101368.19
2022-08-09T19:27:22.827Z,101378.34
2022-08-09T19:30:20.828Z,101373.69
2022-08-09T19:32:45.052Z,101379.72
2022-08-09T19:35:13.298Z,101378.91
2022-08-09T19:37:56.163Z,101379.69
2022-08-09T19:40:33.425Z,101374.53
2022-08-09T19:43:05.181Z,101377.00
2022-08-09T19:45:40.488Z,101381.09
2022-08-09T19:48:11.922Z,101397.22
2022-08-09T19:50:50.773Z,101389.03
2022-08-09T19:53:20.719Z,101392.56
2022-08-09T19:56:02.695Z,101392.00
2022-08-09T19:58:34.095Z,101399.38
2022-08-09T20:01:02.026Z,101398.25
2022-08-09T20:04:11.034Z,101398.50
2022-08-09T20:06:23.453Z,101403.16
2022-08-09T20:08:57.731Z,101404.75
2022-08-09T20:11:42.993Z,101408.56
2022-08-09T20:14:15.711Z,101409.09
2022-08-09T20:16:53.606Z,101405.25
2022-08-09T20:19:47.440Z,101417.00
2022-08-09T20:22:14.152Z,101417.25
2022-08-09T20:24:42.849Z,101419.41
2022-08-09T20:27:22.062Z,101418.84
2022-08-09T20:29:49.758Z,101421.28
2022-08-09T20:32:33.334Z,101419.88
2022-08-09T20:35:08.554Z,101428.09
2022-08-09T20:38:24.059Z,101426.09
2022-08-09T20:40:30.511Z,101435.94
2022-08-09T20:43:18.123Z,101428.53
2022-08-09T20:46:00.491Z,101421.97
2022-08-09T20:48:42.518Z,101431.22
2022-08-09T20:51:19.425Z,101425.72
2022-08-09T20:53:48.861Z,101428.69
2022-08-09T20:56:21.516Z,101436.09
2022-08-09T20:58:58.040Z,101426.19
2022-08-09T21:01:35.267Z,101437.03
2022-08-09T21:05:56.201Z,101434.81
2022-08-09T21:07:11.466Z,101436.88
2022-08-09T21:09:56.730Z,101437.44
2022-08-09T21:15:14.659Z,101430.25
2022-08-09T21:18:22.931Z,101435.03
2022-08-09T21:20:35.514Z,101435.31
2022-08-09T21:23:13.489Z,101439.97
2022-08-09T21:25:59.561Z,101438.19
2022-08-09T21:28:35.133Z,101444.19
2022-08-09T21:31:17.471Z,101434.81
2022-08-09T21:33:50.788Z,101440.25
2022-08-09T21:36:21.175Z,101447.28
2022-08-09T21:38:57.576Z,101445.94
2022-08-09T21:42:04.789Z,101452.59
2022-08-09T21:44:15.227Z,101451.13
2022-08-09T21:47:00.796Z,101451.75
2022-08-09T21:49:29.478Z,101453.50
2022-08-09T21:52:14.724Z,101454.78
2022-08-09T21:54:49.675Z,101453.91
2022-08-09T21:57:25.432Z,101460.34
2022-08-09T22:00:10.508Z,101458.22
2022-08-09T22:02:38.159Z,101459.22
2022-08-09T22:05:16.696Z,101454.78
2022-08-09T22:07:51.805Z,101462.88
2022-08-09T22:10:22.073Z,101463.13
2022-08-09T22:12:51.013Z,101457.31
2022-08-09T22:15:20.625Z,101465.41
2022-08-09T22:17:50.800Z,101462.69
2022-08-09T22:20:27.396Z,101471.81
2022-08-09T22:22:59.344Z,101467.94
2022-08-09T22:26:05.420Z,101476.88
2022-08-09T22:28:32.940Z,101466.72
2022-08-09T22:36:05.139Z,101482.81
2022-08-09T22:44:13.463Z,101471.31
2022-08-09T22:49:46.829Z,101454.59
2022-08-09T23:05:29.866Z,101471.19
2022-08-09T23:08:27.606Z,101468.91
2022-08-09T23:41:45.025Z,101459.78
2022-08-09T23:44:15.626Z,101459.06
2022-08-09T23:46:44.620Z,101454.41
2022-08-09T23:49:12.929Z,101461.84
2022-08-09T23:51:42.428Z,101454.38
2022-08-09T23:54:19.880Z,101466.44
2022-08-09T23:56:56.071Z,101463.00
2022-08-09T23:59:25.300Z,101463.72
